Crockett, Kentucky
Current Conditions -  °F | °C
As of 1:35 PM on Sunday 25 Jan 2015 (Local Time) from KSJS Reporting Station
Clear Clear  
Wind Chill: 43°   Ceiling: Unl
Heat Index: 47°   Visibility: 10mi
Dew Point: 34°   Wind: 7mph
Humidity: 62%   Direction: 170°S
Pressure: 29.72"   Gusts: NA
Location:  37.99°N, 83.09°W
Report Text: KSJS 251835Z AUTO 17006KT 10SM CLR 08/01 A2972 RMK AO2 T00820012
Loading
Personal Weather Stations






























Interactive Weather Map New forecast layout! Learn more

10-Day Weather Forecast

Advertisements
Track Severe Weather on mobile